sensor_id;sensor_type;location;lat;lon;timestamp;pressure;altitude;pressure_sealevel;temperature;humidity
32330;BME280;18807;52.434;13.238;2023-05-03T00:00:06;77525.13;;;-142.05;51.03
32330;BME280;18807;52.434;13.238;2023-05-03T00:07:43;77533.28;;;-142.05;51.19
32330;BME280;18807;52.434;13.238;2023-05-03T00:15:17;77543.50;;;-142.05;51.39
32330;BME280;18807;52.434;13.238;2023-05-03T00:22:52;77576.16;;;-142.05;52.20
32330;BME280;18807;52.434;13.238;2023-05-03T00:30:26;77582.28;;;-142.05;52.67
32330;BME280;18807;52.434;13.238;2023-05-03T00:38:01;77617.00;;;-142.05;54.00
32330;BME280;18807;52.434;13.238;2023-05-03T00:45:35;77629.25;;;-142.05;54.52
32330;BME280;18807;52.434;13.238;2023-05-03T00:53:10;77641.50;;;-142.05;54.93
32330;BME280;18807;52.434;13.238;2023-05-03T01:00:45;77666.00;;;-142.05;55.39
32330;BME280;18807;52.434;13.238;2023-05-03T01:08:27;77672.13;;;-142.05;55.67
32330;BME280;18807;52.434;13.238;2023-05-03T01:16:10;77690.50;;;-142.05;56.74
32330;BME280;18807;52.434;13.238;2023-05-03T01:23:54;77704.78;;;-142.05;56.90
32330;BME280;18807;52.434;13.238;2023-05-03T01:31:33;77721.13;;;-142.05;57.69
32330;BME280;18807;52.434;13.238;2023-05-03T01:39:15;77727.25;;;-142.05;58.09
32330;BME280;18807;52.434;13.238;2023-05-03T01:46:52;77745.63;;;-142.05;58.47
32330;BME280;18807;52.434;13.238;2023-05-03T01:54:26;77780.34;;;-142.05;60.18
32330;BME280;18807;52.434;13.238;2023-05-03T02:02:01;77792.59;;;-142.05;60.85
32330;BME280;18807;52.434;13.238;2023-05-03T02:09:35;77808.94;;;-142.05;61.06
32330;BME280;18807;52.434;13.238;2023-05-03T02:17:10;77819.16;;;-142.05;61.24
32330;BME280;18807;52.434;13.238;2023-05-03T02:24:44;77833.44;;;-142.05;61.94
32330;BME280;18807;52.434;13.238;2023-05-03T02:32:20;77855.91;;;-142.05;62.47
32330;BME280;18807;52.434;13.238;2023-05-03T02:39:53;77866.13;;;-142.05;62.63
32330;BME280;18807;52.434;13.238;2023-05-03T02:47:29;77886.53;;;-142.05;62.96
32330;BME280;18807;52.434;13.238;2023-05-03T02:55:04;77896.75;;;-142.05;63.38
32330;BME280;18807;52.434;13.238;2023-05-03T03:02:40;77927.38;;;-142.05;64.14
32330;BME280;18807;52.434;13.238;2023-05-03T03:10:14;77935.53;;;-142.05;64.21
32330;BME280;18807;52.434;13.238;2023-05-03T03:17:49;77943.72;;;-142.05;64.90
32330;BME280;18807;52.434;13.238;2023-05-03T03:25:23;77951.88;;;-142.05;64.86
32330;BME280;18807;52.434;13.238;2023-05-03T03:32:59;77974.34;;;-142.05;65.85
32330;BME280;18807;52.434;13.238;2023-05-03T03:40:33;77978.44;;;-142.05;65.84
32330;BME280;18807;52.434;13.238;2023-05-03T03:48:08;77992.72;;;-142.05;66.32
32330;BME280;18807;52.434;13.238;2023-05-03T03:55:42;78009.06;;;-142.05;66.36
32330;BME280;18807;52.434;13.238;2023-05-03T04:03:17;78017.22;;;-142.05;66.63
32330;BME280;18807;52.434;13.238;2023-05-03T04:10:52;78045.81;;;-142.05;67.01
32330;BME280;18807;52.434;13.238;2023-05-03T04:18:27;78045.81;;;-142.05;66.91
32330;BME280;18807;52.434;13.238;2023-05-03T04:26:01;78049.91;;;-142.05;66.67
32330;BME280;18807;52.434;13.238;2023-05-03T04:33:38;78035.59;;;-142.05;66.44
32330;BME280;18807;52.434;13.238;2023-05-03T04:41:12;78041.72;;;-142.05;66.36
32330;BME280;18807;52.434;13.238;2023-05-03T04:48:49;78039.69;;;-142.05;66.37
32330;BME280;18807;52.434;13.238;2023-05-03T04:56:23;78043.78;;;-142.05;66.29
32330;BME280;18807;52.434;13.238;2023-05-03T05:03:59;78039.69;;;-142.05;65.16
32330;BME280;18807;52.434;13.238;2023-05-03T05:11:33;78029.47;;;-142.05;64.28
32330;BME280;18807;52.434;13.238;2023-05-03T05:19:08;78002.94;;;-142.05;63.62
32330;BME280;18807;52.434;13.238;2023-05-03T05:26:42;77982.50;;;-142.05;63.61
32330;BME280;18807;52.434;13.238;2023-05-03T05:34:19;77980.47;;;-142.05;61.71
32330;BME280;18807;52.434;13.238;2023-05-03T05:41:53;77972.31;;;-142.05;61.18
32330;BME280;18807;52.434;13.238;2023-05-03T05:49:29;77955.97;;;-142.05;60.78
32330;BME280;18807;52.434;13.238;2023-05-03T05:57:03;77949.84;;;-142.05;59.92
32330;BME280;18807;52.434;13.238;2023-05-03T06:04:38;77939.63;;;-142.05;59.82
32330;BME280;18807;52.434;13.238;2023-05-03T06:12:12;77917.16;;;-142.05;60.25
32330;BME280;18807;52.434;13.238;2023-05-03T06:19:47;77894.69;;;-142.05;59.52
32330;BME280;18807;52.434;13.238;2023-05-03T06:27:22;77874.28;;;-142.05;58.94
32330;BME280;18807;52.434;13.238;2023-05-03T06:34:57;77853.84;;;-142.05;59.22
32330;BME280;18807;52.434;13.238;2023-05-03T06:42:32;77833.44;;;-142.05;58.71
32330;BME280;18807;52.434;13.238;2023-05-03T06:50:08;77804.84;;;-142.05;58.25
32330;BME280;18807;52.434;13.238;2023-05-03T06:57:42;77790.56;;;-142.05;57.38
32330;BME280;18807;52.434;13.238;2023-05-03T07:05:18;77761.97;;;-142.05;55.78
32330;BME280;18807;52.434;13.238;2023-05-03T07:12:51;77749.72;;;-142.05;51.31
32330;BME280;18807;52.434;13.238;2023-05-03T07:20:28;77731.34;;;-142.05;51.82
32330;BME280;18807;52.434;13.238;2023-05-03T07:28:02;77698.66;;;-142.05;51.49
32330;BME280;18807;52.434;13.238;2023-05-03T07:35:37;77684.38;;;-142.05;50.87
32330;BME280;18807;52.434;13.238;2023-05-03T07:43:11;77653.75;;;-142.05;50.70
32330;BME280;18807;52.434;13.238;2023-05-03T07:50:46;77621.09;;;-142.05;49.86
32330;BME280;18807;52.434;13.238;2023-05-03T07:58:20;77617.00;;;-142.05;48.69
32330;BME280;18807;52.434;13.238;2023-05-03T08:06:08;77570.03;;;-142.05;51.24
32330;BME280;18807;52.434;13.238;2023-05-03T08:13:45;77547.56;;;-142.05;48.84
32330;BME280;18807;52.434;13.238;2023-05-03T08:21:20;77490.41;;;-142.05;46.67
32330;BME280;18807;52.434;13.238;2023-05-03T08:28:56;77453.66;;;-142.05;46.66
32330;BME280;18807;52.434;13.238;2023-05-03T08:36:31;77429.16;;;-142.05;46.68
32330;BME280;18807;52.434;13.238;2023-05-03T08:44:07;77359.72;;;-142.05;45.72
32330;BME280;18807;52.434;13.238;2023-05-03T08:51:45;77398.53;;;-142.05;44.02
32330;BME280;18807;52.434;13.238;2023-05-03T08:59:21;77380.16;;;-142.05;43.73
32330;BME280;18807;52.434;13.238;2023-05-03T09:07:06;77316.84;;;-142.05;43.68
32330;BME280;18807;52.434;13.238;2023-05-03T09:14:44;77294.41;;;-142.05;42.76
32330;BME280;18807;52.434;13.238;2023-05-03T09:22:21;77273.97;;;-142.05;41.86
32330;BME280;18807;52.434;13.238;2023-05-03T09:29:55;77222.94;;;-142.05;43.53
32330;BME280;18807;52.434;13.238;2023-05-03T09:37:36;77190.28;;;-142.05;41.48
32330;BME280;18807;52.434;13.238;2023-05-03T09:45:10;77210.69;;;-142.05;41.91
32330;BME280;18807;52.434;13.238;2023-05-03T09:52:47;77175.97;;;-142.05;41.11
32330;BME280;18807;52.434;13.238;2023-05-03T10:00:21;77057.56;;;-142.05;42.98
32330;BME280;18807;52.434;13.238;2023-05-03T10:07:57;77165.78;;;-142.05;39.11
32330;BME280;18807;52.434;13.238;2023-05-03T10:15:33;77122.91;;;-142.05;41.12
32330;BME280;18807;52.434;13.238;2023-05-03T10:23:12;77137.19;;;-142.05;41.09
32330;BME280;18807;52.434;13.238;2023-05-03T10:30:46;77159.66;;;-142.05;42.58
32330;BME280;18807;52.434;13.238;2023-05-03T10:38:23;77139.25;;;-142.05;39.84
32330;BME280;18807;52.434;13.238;2023-05-03T10:45:57;77094.31;;;-142.05;40.85
32330;BME280;18807;52.434;13.238;2023-05-03T10:53:37;77098.41;;;-142.05;41.24
32330;BME280;18807;52.434;13.238;2023-05-03T11:01:14;77143.31;;;-142.05;41.69
32330;BME280;18807;52.434;13.238;2023-05-03T11:08:50;77155.56;;;-142.05;40.41
32330;BME280;18807;52.434;13.238;2023-05-03T11:16:24;77141.28;;;-142.05;40.07
32330;BME280;18807;52.434;13.238;2023-05-03T11:24:17;77118.81;;;-142.05;39.94
32330;BME280;18807;52.434;13.238;2023-05-03T11:31:51;77112.69;;;-142.05;38.89
32330;BME280;18807;52.434;13.238;2023-05-03T11:39:31;77075.94;;;-142.05;39.94
32330;BME280;18807;52.434;13.238;2023-05-03T11:47:05;77059.63;;;-142.05;38.99
32330;BME280;18807;52.434;13.238;2023-05-03T11:54:42;77045.31;;;-142.05;38.31
32330;BME280;18807;52.434;13.238;2023-05-03T12:02:16;77031.03;;;-142.05;37.80
32330;BME280;18807;52.434;13.238;2023-05-03T12:09:52;77022.88;;;-142.05;38.20
32330;BME280;18807;52.434;13.238;2023-05-03T12:17:46;76977.97;;;-142.05;39.78
32330;BME280;18807;52.434;13.238;2023-05-03T12:25:23;76971.84;;;-142.05;38.83
32330;BME280;18807;52.434;13.238;2023-05-03T12:33:03;76959.59;;;-142.05;38.33
32330;BME280;18807;52.434;13.238;2023-05-03T12:40:42;76947.34;;;-142.05;38.35
32330;BME280;18807;52.434;13.238;2023-05-03T12:48:17;76933.03;;;-142.05;37.85
32330;BME280;18807;52.434;13.238;2023-05-03T12:55:53;76916.72;;;-142.05;38.06
32330;BME280;18807;52.434;13.238;2023-05-03T13:03:30;76898.34;;;-142.05;37.99
32330;BME280;18807;52.434;13.238;2023-05-03T13:11:12;76888.13;;;-142.05;38.43
32330;BME280;18807;52.434;13.238;2023-05-03T13:18:46;76865.69;;;-142.05;38.04
32330;BME280;18807;52.434;13.238;2023-05-03T13:26:22;76853.44;;;-142.05;38.12
32330;BME280;18807;52.434;13.238;2023-05-03T13:33:56;76820.78;;;-142.05;38.67
32330;BME280;18807;52.434;13.238;2023-05-03T13:41:32;76790.16;;;-142.05;37.98
32330;BME280;18807;52.434;13.238;2023-05-03T13:49:06;76808.53;;;-142.05;37.78
32330;BME280;18807;52.434;13.238;2023-05-03T13:56:41;76806.47;;;-142.05;37.63
32330;BME280;18807;52.434;13.238;2023-05-03T14:04:15;76745.25;;;-142.05;37.33
32330;BME280;18807;52.434;13.238;2023-05-03T14:11:51;76679.91;;;-142.05;38.42
32330;BME280;18807;52.434;13.238;2023-05-03T14:19:28;76594.19;;;-142.05;36.24
32330;BME280;18807;52.434;13.238;2023-05-03T14:27:07;76575.81;;;-142.05;35.40
32330;BME280;18807;52.434;13.238;2023-05-03T14:34:41;76571.72;;;-142.05;35.15
32330;BME280;18807;52.434;13.238;2023-05-03T14:42:16;76532.94;;;-142.05;35.97
32330;BME280;18807;52.434;13.238;2023-05-03T14:49:51;76461.50;;;-142.05;34.47
32330;BME280;18807;52.434;13.238;2023-05-03T14:57:32;76406.41;;;-142.05;34.45
32330;BME280;18807;52.434;13.238;2023-05-03T15:05:11;76428.84;;;-142.05;33.63
32330;BME280;18807;52.434;13.238;2023-05-03T15:12:46;76428.84;;;-142.05;33.81
32330;BME280;18807;52.434;13.238;2023-05-03T15:20:21;76392.09;;;-142.05;33.84
32330;BME280;18807;52.434;13.238;2023-05-03T15:27:56;76339.03;;;-142.05;33.81
32330;BME280;18807;52.434;13.238;2023-05-03T15:35:37;76365.56;;;-142.05;35.15
32330;BME280;18807;52.434;13.238;2023-05-03T15:43:12;76310.47;;;-142.05;33.84
32330;BME280;18807;52.434;13.238;2023-05-03T15:50:46;76308.41;;;-142.05;34.04
32330;BME280;18807;52.434;13.238;2023-05-03T15:58:22;76318.63;;;-142.05;33.57
32330;BME280;18807;52.434;13.238;2023-05-03T16:05:56;76283.94;;;-142.05;33.66
32330;BME280;18807;52.434;13.238;2023-05-03T16:13:33;76257.41;;;-142.05;32.83
32330;BME280;18807;52.434;13.238;2023-05-03T16:21:06;76249.22;;;-142.05;33.67
32330;BME280;18807;52.434;13.238;2023-05-03T16:28:42;76232.91;;;-142.05;33.39
32330;BME280;18807;52.434;13.238;2023-05-03T16:36:15;76249.22;;;-142.05;33.53
32330;BME280;18807;52.434;13.238;2023-05-03T16:43:52;76298.22;;;-142.05;33.83
32330;BME280;18807;52.434;13.238;2023-05-03T16:51:27;76349.25;;;-142.05;34.36
32330;BME280;18807;52.434;13.238;2023-05-03T16:59:02;76390.06;;;-142.05;34.91
32330;BME280;18807;52.434;13.238;2023-05-03T17:06:36;76445.19;;;-142.05;35.51
32330;BME280;18807;52.434;13.238;2023-05-03T17:14:12;76498.25;;;-142.05;35.94
32330;BME280;18807;52.434;13.238;2023-05-03T17:21:45;76551.31;;;-142.05;36.24
32330;BME280;18807;52.434;13.238;2023-05-03T17:29:21;76583.97;;;-142.05;36.87
32330;BME280;18807;52.434;13.238;2023-05-03T17:36:57;76628.88;;;-142.05;37.24
32330;BME280;18807;52.434;13.238;2023-05-03T17:44:32;76653.38;;;-142.05;37.49
32330;BME280;18807;52.434;13.238;2023-05-03T17:52:06;76688.09;;;-142.05;37.68
32330;BME280;18807;52.434;13.238;2023-05-03T17:59:59;76706.44;;;-142.05;37.97
32330;BME280;18807;52.434;13.238;2023-05-03T18:07:34;76737.06;;;-142.05;37.80
32330;BME280;18807;52.434;13.238;2023-05-03T18:15:10;76753.41;;;-142.05;38.21
32330;BME280;18807;52.434;13.238;2023-05-03T18:23:03;76790.16;;;-142.05;38.84
32330;BME280;18807;52.434;13.238;2023-05-03T18:30:39;76806.47;;;-142.05;39.46
32330;BME280;18807;52.434;13.238;2023-05-03T18:38:15;76816.69;;;-142.05;39.81
32330;BME280;18807;52.434;13.238;2023-05-03T18:45:51;76849.34;;;-142.05;40.67
32330;BME280;18807;52.434;13.238;2023-05-03T18:53:26;76877.94;;;-142.05;41.71
32330;BME280;18807;52.434;13.238;2023-05-03T19:01:20;76906.50;;;-142.05;43.06
32330;BME280;18807;52.434;13.238;2023-05-03T19:08:54;76937.13;;;-142.05;43.80
32330;BME280;18807;52.434;13.238;2023-05-03T19:16:30;76971.84;;;-142.05;44.73
32330;BME280;18807;52.434;13.238;2023-05-03T19:24:05;76996.34;;;-142.05;45.72
32330;BME280;18807;52.434;13.238;2023-05-03T19:31:44;77026.97;;;-142.05;47.52
32330;BME280;18807;52.434;13.238;2023-05-03T19:39:18;77051.44;;;-142.05;47.60
32330;BME280;18807;52.434;13.238;2023-05-03T19:46:53;77069.81;;;-142.05;48.02
32330;BME280;18807;52.434;13.238;2023-05-03T19:54:28;77098.41;;;-142.05;48.98
32330;BME280;18807;52.434;13.238;2023-05-03T20:02:04;77120.88;;;-142.05;49.75
32330;BME280;18807;52.434;13.238;2023-05-03T20:09:39;77145.38;;;-142.05;50.84
32330;BME280;18807;52.434;13.238;2023-05-03T20:17:14;77163.75;;;-142.05;52.21
32330;BME280;18807;52.434;13.238;2023-05-03T20:24:48;77192.31;;;-142.05;52.43
32330;BME280;18807;52.434;13.238;2023-05-03T20:32:25;77220.91;;;-142.05;53.06
32330;BME280;18807;52.434;13.238;2023-05-03T20:39:59;77247.44;;;-142.05;53.62
32330;BME280;18807;52.434;13.238;2023-05-03T20:47:35;77263.78;;;-142.05;54.47
32330;BME280;18807;52.434;13.238;2023-05-03T20:55:09;77280.09;;;-142.05;54.73
32330;BME280;18807;52.434;13.238;2023-05-03T21:02:44;77298.47;;;-142.05;55.51
32330;BME280;18807;52.434;13.238;2023-05-03T21:10:21;77320.94;;;-142.05;56.66
32330;BME280;18807;52.434;13.238;2023-05-03T21:17:56;77341.34;;;-142.05;58.26
32330;BME280;18807;52.434;13.238;2023-05-03T21:25:30;77367.91;;;-142.05;59.38
32330;BME280;18807;52.434;13.238;2023-05-03T21:33:06;77394.44;;;-142.05;60.17
32330;BME280;18807;52.434;13.238;2023-05-03T21:40:39;77425.06;;;-142.05;61.17
32330;BME280;18807;52.434;13.238;2023-05-03T21:48:15;77437.31;;;-142.05;62.01
32330;BME280;18807;52.434;13.238;2023-05-03T21:55:48;77449.56;;;-142.05;62.65
32330;BME280;18807;52.434;13.238;2023-05-03T22:03:24;77451.63;;;-142.05;63.24
32330;BME280;18807;52.434;13.238;2023-05-03T22:10:58;77465.91;;;-142.05;63.33
32330;BME280;18807;52.434;13.238;2023-05-03T22:18:34;77480.19;;;-142.05;63.24
32330;BME280;18807;52.434;13.238;2023-05-03T22:26:08;77490.41;;;-142.05;63.54
32330;BME280;18807;52.434;13.238;2023-05-03T22:33:44;77498.56;;;-142.05;64.11
32330;BME280;18807;52.434;13.238;2023-05-03T22:41:20;77512.88;;;-142.05;64.27
32330;BME280;18807;52.434;13.238;2023-05-03T22:48:56;77537.38;;;-142.05;64.84
32330;BME280;18807;52.434;13.238;2023-05-03T22:56:30;77559.81;;;-142.05;65.92
32330;BME280;18807;52.434;13.238;2023-05-03T23:04:05;77559.81;;;-142.05;66.68
32330;BME280;18807;52.434;13.238;2023-05-03T23:11:39;77570.03;;;-142.05;66.96
32330;BME280;18807;52.434;13.238;2023-05-03T23:19:14;77580.25;;;-142.05;66.87
32330;BME280;18807;52.434;13.238;2023-05-03T23:26:48;77582.28;;;-142.05;67.30
32330;BME280;18807;52.434;13.238;2023-05-03T23:34:24;77594.53;;;-142.05;67.03
32330;BME280;18807;52.434;13.238;2023-05-03T23:41:58;77588.41;;;-142.05;66.58
32330;BME280;18807;52.434;13.238;2023-05-03T23:49:33;77592.50;;;-142.05;66.78
32330;BME280;18807;52.434;13.238;2023-05-03T23:57:07;77600.66;;;-142.05;67.30
